Time;durP1;ratioP1;P1;durP2;ratioP2;P2;SDS_P1;SDS_P2;PMS_P1;PMS_P2;Temp;Humidity;BMP_temperature;BMP_pressure;BME280_temperature;BME280_humidity;BME280_pressure;Samples;Min_cycle;Max_cycle;Signal;HPM_P1;HPM_P2
2021/09/11 00:00:54;;;;;;;2.78;2.67;;;20.00;62.20;;;;;;5033760;28;20500;-80
2021/09/11 00:03:20;;;;;;;3.00;2.90;;;20.00;62.20;;;;;;5033625;28;20033;-80
2021/09/11 00:05:46;;;;;;;2.85;2.75;;;20.00;63.20;;;;;;5032107;28;20025;-80
2021/09/11 00:08:12;;;;;;;2.80;2.70;;;19.90;62.40;;;;;;5032685;28;20029;-80
2021/09/11 00:10:39;;;;;;;2.80;2.70;;;19.90;62.40;;;;;;5033525;28;20778;-80
2021/09/11 00:13:05;;;;;;;3.00;2.90;;;19.90;62.50;;;;;;5012599;28;20046;-80
2021/09/11 00:15:31;;;;;;;3.00;2.90;;;19.90;62.60;;;;;;5031916;28;20060;-80
2021/09/11 00:17:59;;;;;;;2.75;2.65;;;19.90;62.60;;;;;;5033313;28;20021;-80
2021/09/11 00:20:25;;;;;;;2.80;2.70;;;19.80;62.70;;;;;;5032209;28;20037;-80
2021/09/11 00:22:51;;;;;;;2.58;2.47;;;19.80;62.80;;;;;;5031641;28;20143;-80
2021/09/11 00:25:17;;;;;;;2.80;2.70;;;19.80;62.90;;;;;;5032268;28;20498;-80
2021/09/11 00:27:44;;;;;;;3.20;3.00;;;19.80;62.90;;;;;;5033490;28;20033;-80
2021/09/11 00:30:10;;;;;;;2.80;2.70;;;19.80;62.90;;;;;;5031321;28;20033;-79
2021/09/11 00:32:42;;;;;;;2.47;2.38;;;19.80;63.00;;;;;;5036002;28;20036;-80
2021/09/11 00:35:12;;;;;;;2.90;2.80;;;19.70;63.80;;;;;;5033102;28;20022;-80
2021/09/11 00:37:38;;;;;;;2.73;2.63;;;19.80;63.10;;;;;;5032303;28;20041;-80
2021/09/11 00:40:04;;;;;;;2.80;2.70;;;19.70;63.20;;;;;;5033417;28;20044;-80
2021/09/11 00:42:31;;;;;;;2.80;2.70;;;19.70;63.20;;;;;;5032947;28;20386;-80
2021/09/11 00:44:57;;;;;;;3.05;2.85;;;19.70;63.20;;;;;;5032714;28;20041;-80
2021/09/11 00:47:23;;;;;;;2.75;2.65;;;19.80;63.30;;;;;;5032324;28;20025;-80
2021/09/11 00:49:49;;;;;;;3.33;3.13;;;19.80;63.20;;;;;;5031614;28;20032;-80
2021/09/11 00:52:15;;;;;;;3.10;3.00;;;19.80;63.10;;;;;;5033141;28;20030;-80
2021/09/11 00:54:41;;;;;;;3.30;3.00;;;19.80;63.20;;;;;;5032698;28;20040;-80
2021/09/11 00:57:07;;;;;;;2.97;2.88;;;19.80;63.30;;;;;;5031390;28;20028;-80
2021/09/11 00:59:34;;;;;;;3.00;2.90;;;19.80;63.30;;;;;;5031098;28;20045;-80
2021/09/11 01:02:00;;;;;;;2.85;2.75;;;19.80;63.30;;;;;;5031116;28;20040;-80
2021/09/11 01:04:29;;;;;;;3.00;2.90;;;19.80;63.30;;;;;;5031311;28;20067;-80
2021/09/11 01:06:55;;;;;;;2.92;2.83;;;19.80;63.30;;;;;;5015298;28;20024;-80
2021/09/11 01:09:22;;;;;;;2.90;2.80;;;19.80;63.40;;;;;;5031089;28;20041;-80
2021/09/11 01:11:48;;;;;;;2.83;2.72;;;19.80;63.40;;;;;;5031195;28;20028;-80
2021/09/11 01:14:14;;;;;;;3.00;2.90;;;19.80;63.50;;;;;;5032356;28;20033;-80
2021/09/11 01:16:40;;;;;;;3.20;3.10;;;19.80;63.50;;;;;;5032007;28;20478;-80
2021/09/11 01:19:06;;;;;;;2.95;2.85;;;19.80;63.60;;;;;;5031919;28;20504;-80
2021/09/11 01:21:32;;;;;;;3.40;3.20;;;19.80;63.60;;;;;;5032042;28;20033;-80
2021/09/11 01:23:58;;;;;;;2.90;2.80;;;19.80;63.60;;;;;;5030809;28;20037;-80
2021/09/11 01:26:24;;;;;;;2.90;2.80;;;19.70;63.70;;;;;;5030854;28;20478;-80
2021/09/11 01:28:50;;;;;;;2.90;2.80;;;19.70;63.70;;;;;;5030965;28;20394;-80
2021/09/11 01:31:17;;;;;;;2.90;2.80;;;19.70;63.80;;;;;;5032085;28;20474;-80
2021/09/11 01:33:43;;;;;;;3.05;2.95;;;19.70;63.80;;;;;;5032244;28;20033;-80
2021/09/11 01:36:09;;;;;;;3.10;3.00;;;19.70;63.90;;;;;;5030835;28;20052;-80
2021/09/11 01:38:35;;;;;;;3.00;2.90;;;19.60;63.90;;;;;;5013874;28;20045;-80
2021/09/11 01:41:01;;;;;;;2.85;2.75;;;19.60;63.90;;;;;;5032283;28;20025;-80
2021/09/11 01:43:28;;;;;;;3.20;3.00;;;19.60;64.10;;;;;;5030922;28;20029;-80
2021/09/11 01:45:55;;;;;;;2.80;2.70;;;19.60;64.10;;;;;;5032122;28;20041;-80
2021/09/11 01:48:21;;;;;;;2.78;2.67;;;19.60;64.10;;;;;;5030633;28;20390;-80
2021/09/11 01:50:47;;;;;;;2.63;2.53;;;19.60;64.20;;;;;;5031582;28;20036;-80
2021/09/11 01:53:13;;;;;;;2.92;2.83;;;19.60;64.20;;;;;;5030527;28;20386;-80
2021/09/11 01:55:39;;;;;;;2.65;2.55;;;19.60;64.30;;;;;;5031791;28;20033;-80
2021/09/11 01:58:05;;;;;;;2.80;2.70;;;19.50;64.30;;;;;;5032089;28;20382;-80
2021/09/11 02:00:31;;;;;;;2.80;2.70;;;19.50;64.30;;;;;;5025312;28;20383;-80
2021/09/11 02:02:57;;;;;;;2.47;2.38;;;19.50;64.40;;;;;;5020823;28;20029;-80
2021/09/11 02:05:23;;;;;;;2.90;2.80;;;19.50;64.40;;;;;;5004906;28;20064;-80
2021/09/11 02:07:52;;;;;;;2.90;2.80;;;19.50;64.40;;;;;;5026026;28;20021;-80
2021/09/11 02:10:18;;;;;;;2.90;2.80;;;19.50;64.40;;;;;;5012009;28;20160;-80
2021/09/11 02:12:45;;;;;;;2.85;2.75;;;19.50;64.40;;;;;;5027667;28;20037;-80
2021/09/11 02:15:11;;;;;;;2.70;2.60;;;19.50;64.50;;;;;;5025237;28;20458;-80
2021/09/11 02:17:38;;;;;;;2.95;2.85;;;19.50;64.50;;;;;;5025651;28;20030;-80
2021/09/11 02:20:05;;;;;;;2.53;2.42;;;19.50;64.50;;;;;;5026356;28;20029;-80
2021/09/11 02:22:31;;;;;;;2.75;2.65;;;19.50;64.60;;;;;;5027889;28;20391;-80
2021/09/11 02:24:57;;;;;;;2.60;2.50;;;19.50;64.70;;;;;;5028271;28;20053;-80
2021/09/11 02:27:23;;;;;;;2.90;2.80;;;19.40;64.60;;;;;;5005545;28;20034;-80
2021/09/11 02:29:49;;;;;;;2.97;2.85;;;19.40;64.70;;;;;;5022009;28;20045;-80
2021/09/11 02:32:15;;;;;;;2.65;2.55;;;19.40;64.70;;;;;;5030319;28;20029;-80
2021/09/11 02:34:41;;;;;;;2.45;2.35;;;19.50;64.80;;;;;;5013477;28;20410;-80
2021/09/11 02:37:09;;;;;;;2.90;2.80;;;19.40;64.80;;;;;;5025347;28;20030;-80
2021/09/11 02:39:36;;;;;;;3.20;3.10;;;19.40;64.80;;;;;;5034047;28;20041;-80
2021/09/11 02:42:02;;;;;;;2.67;2.58;;;19.40;64.80;;;;;;5033845;28;20021;-80
2021/09/11 02:44:28;;;;;;;3.13;3.03;;;19.40;64.80;;;;;;5034974;28;20053;-80
2021/09/11 02:46:54;;;;;;;2.90;2.80;;;19.40;64.80;;;;;;5033393;28;20033;-80
2021/09/11 02:49:20;;;;;;;2.70;2.60;;;19.50;64.90;;;;;;5033117;28;20053;-80
2021/09/11 02:51:46;;;;;;;2.80;2.70;;;19.50;64.90;;;;;;5035260;28;20037;-80
2021/09/11 02:54:12;;;;;;;2.95;2.85;;;19.50;64.90;;;;;;5034898;28;20021;-80
2021/09/11 02:56:38;;;;;;;2.80;2.70;;;19.50;64.90;;;;;;5034841;28;20063;-80
2021/09/11 02:59:04;;;;;;;2.90;2.80;;;19.50;64.90;;;;;;5033730;28;20040;-80
2021/09/11 03:01:31;;;;;;;2.47;2.38;;;19.50;65.00;;;;;;5034455;28;20037;-80
2021/09/11 03:03:57;;;;;;;2.90;2.80;;;19.50;64.90;;;;;;5035040;28;20041;-79
2021/09/11 03:06:23;;;;;;;3.05;2.95;;;19.50;65.00;;;;;;5033507;28;20461;-80
2021/09/11 03:08:49;;;;;;;3.00;2.90;;;19.50;65.00;;;;;;5034509;28;20042;-80
2021/09/11 03:11:15;;;;;;;3.60;3.40;;;19.50;65.00;;;;;;5034589;28;20474;-80
2021/09/11 03:13:42;;;;;;;2.80;2.70;;;19.50;65.10;;;;;;5033537;28;20029;-80
2021/09/11 03:16:09;;;;;;;2.80;2.70;;;19.40;65.00;;;;;;5033005;28;20151;-80
2021/09/11 03:18:36;;;;;;;2.85;2.75;;;19.50;65.10;;;;;;5033615;28;20409;-80
2021/09/11 03:21:02;;;;;;;3.00;2.90;;;19.40;65.10;;;;;;5033378;28;20470;-80
2021/09/11 03:23:28;;;;;;;2.90;2.70;;;19.40;65.10;;;;;;5034312;28;20029;-80
2021/09/11 03:25:54;;;;;;;2.63;2.53;;;19.50;65.20;;;;;;5033233;28;20490;-80
2021/09/11 03:28:20;;;;;;;2.80;2.70;;;19.40;65.20;;;;;;5034441;28;20033;-80
2021/09/11 03:30:46;;;;;;;3.10;2.90;;;19.40;65.20;;;;;;5016340;28;20034;-80
2021/09/11 03:33:12;;;;;;;2.70;2.60;;;19.40;65.30;;;;;;5032798;28;20026;-80
2021/09/11 03:35:38;;;;;;;3.42;3.15;;;19.40;65.30;;;;;;5033050;28;20048;-80
2021/09/11 03:38:04;;;;;;;2.80;2.70;;;19.40;65.40;;;;;;5034197;28;20032;-80
2021/09/11 03:40:31;;;;;;;2.80;2.70;;;19.40;65.50;;;;;;5033817;28;20478;-80
2021/09/11 03:42:57;;;;;;;2.90;2.80;;;19.40;65.50;;;;;;5033954;28;20033;-80
2021/09/11 03:45:23;;;;;;;3.08;2.80;;;19.30;65.50;;;;;;5033461;28;20049;-80
2021/09/11 03:47:49;;;;;;;2.70;2.60;;;19.40;65.60;;;;;;5032402;28;20021;-80
2021/09/11 03:50:15;;;;;;;2.70;2.60;;;19.30;65.60;;;;;;5032983;28;20028;-80
2021/09/11 03:52:41;;;;;;;2.70;2.60;;;19.30;65.60;;;;;;5033941;28;20029;-80
2021/09/11 03:55:08;;;;;;;2.80;2.70;;;19.30;65.60;;;;;;5034663;28;20058;-80
2021/09/11 03:57:34;;;;;;;4.40;2.90;;;19.30;65.50;;;;;;5032107;28;20038;-80
2021/09/11 04:00:00;;;;;;;2.60;2.50;;;19.30;65.60;;;;;;5033300;28;20037;-80
2021/09/11 04:02:26;;;;;;;2.80;2.70;;;19.30;65.60;;;;;;5032643;28;20493;-80
2021/09/11 04:04:52;;;;;;;2.33;2.22;;;19.30;65.70;;;;;;5033748;28;20478;-80
2021/09/11 04:07:18;;;;;;;2.80;2.70;;;19.30;65.70;;;;;;5032610;28;20025;-80
2021/09/11 04:09:44;;;;;;;2.60;2.50;;;19.30;65.80;;;;;;5033551;28;20054;-79
2021/09/11 04:12:10;;;;;;;2.90;2.80;;;19.30;65.80;;;;;;5032390;28;20026;-80
2021/09/11 04:14:36;;;;;;;2.70;2.60;;;19.30;65.90;;;;;;5033062;28;20044;-80
2021/09/11 04:17:03;;;;;;;2.92;2.83;;;19.30;65.90;;;;;;5031932;28;20045;-80
2021/09/11 04:19:29;;;;;;;2.70;2.60;;;19.30;65.90;;;;;;5033396;28;20037;-80
2021/09/11 04:21:55;;;;;;;2.60;2.50;;;19.30;65.90;;;;;;5033791;28;20363;-80
2021/09/11 04:24:21;;;;;;;2.70;2.60;;;19.30;65.90;;;;;;5033144;28;20033;-80
2021/09/11 04:26:47;;;;;;;2.72;2.63;;;19.30;66.00;;;;;;5033285;28;20379;-80
2021/09/11 04:29:13;;;;;;;5.22;2.60;;;19.20;65.90;;;;;;5032695;28;20025;-80
2021/09/11 04:31:39;;;;;;;2.72;2.63;;;19.30;66.10;;;;;;5032735;28;20056;-80
2021/09/11 04:34:05;;;;;;;3.35;3.17;;;19.20;66.00;;;;;;5032528;28;20033;-80
2021/09/11 04:36:31;;;;;;;2.67;2.58;;;19.20;66.10;;;;;;5033122;28;20418;-80
2021/09/11 04:38:57;;;;;;;2.15;2.05;;;19.20;66.10;;;;;;5032959;28;20025;-80
2021/09/11 04:41:24;;;;;;;2.47;2.38;;;19.20;66.10;;;;;;5032876;28;20497;-80
2021/09/11 04:43:50;;;;;;;2.40;2.30;;;19.20;66.10;;;;;;5031991;28;20049;-80
2021/09/11 04:46:16;;;;;;;2.60;2.50;;;19.20;66.20;;;;;;5032983;28;20045;-80
2021/09/11 04:48:42;;;;;;;2.88;2.67;;;19.20;67.00;;;;;;5032945;28;20025;-80
2021/09/11 04:51:08;;;;;;;2.58;2.47;;;19.20;66.20;;;;;;5032797;28;20029;-80
2021/09/11 04:53:34;;;;;;;2.60;2.50;;;19.20;66.20;;;;;;5032519;28;20033;-80
2021/09/11 04:56:00;;;;;;;2.80;2.70;;;19.20;66.20;;;;;;5031791;28;20025;-80
2021/09/11 04:58:26;;;;;;;2.53;2.42;;;19.20;66.30;;;;;;5014175;28;20033;-80
2021/09/11 05:00:52;;;;;;;2.45;2.35;;;19.20;66.30;;;;;;5028580;28;20184;-80
2021/09/11 05:03:19;;;;;;;2.53;2.42;;;19.20;66.40;;;;;;5032191;28;20037;-80
2021/09/11 05:05:45;;;;;;;2.60;2.50;;;19.20;66.40;;;;;;5031124;28;20040;-80
2021/09/11 05:08:12;;;;;;;2.42;2.33;;;19.20;66.50;;;;;;5031122;28;20021;-80
2021/09/11 05:10:38;;;;;;;2.70;2.60;;;19.20;66.50;;;;;;5032611;28;20366;-80
2021/09/11 05:13:04;;;;;;;2.60;2.50;;;19.10;66.50;;;;;;5031390;28;20048;-80
2021/09/11 05:15:30;;;;;;;2.65;2.55;;;19.10;66.60;;;;;;5030710;28;20425;-79
2021/09/11 05:17:56;;;;;;;2.67;2.58;;;19.10;66.70;;;;;;5032266;28;20462;-80
2021/09/11 05:20:22;;;;;;;2.50;2.40;;;19.00;66.70;;;;;;5031247;28;20025;-80
2021/09/11 05:22:48;;;;;;;2.55;2.45;;;19.00;66.80;;;;;;5031303;28;20022;-80
2021/09/11 05:25:14;;;;;;;2.63;2.53;;;19.00;66.90;;;;;;5032836;28;20045;-80
2021/09/11 05:27:41;;;;;;;2.53;2.42;;;19.00;67.00;;;;;;5031853;28;20030;-79
2021/09/11 05:30:08;;;;;;;2.63;2.53;;;19.00;67.10;;;;;;5029566;28;20378;-79
2021/09/11 05:32:34;;;;;;;2.50;2.40;;;19.00;67.10;;;;;;5032000;28;20033;-79
2021/09/11 05:35:00;;;;;;;2.50;2.40;;;19.00;67.10;;;;;;5030962;28;20048;-79
2021/09/11 05:37:26;;;;;;;2.38;2.28;;;19.00;67.10;;;;;;5032012;28;20026;-79
2021/09/11 05:39:52;;;;;;;8.05;2.72;;;19.00;67.20;;;;;;5032487;28;20040;-79
2021/09/11 05:42:19;;;;;;;9.00;3.25;;;18.90;67.10;;;;;;5030346;28;20033;-79
2021/09/11 05:44:46;;;;;;;2.40;2.30;;;18.90;67.20;;;;;;5030627;28;20034;-79
2021/09/11 05:47:12;;;;;;;2.38;2.28;;;18.90;67.20;;;;;;5031621;28;20482;-79
2021/09/11 05:49:38;;;;;;;2.30;2.20;;;18.90;67.20;;;;;;5030645;28;20033;-79
2021/09/11 05:52:04;;;;;;;2.50;2.40;;;18.90;67.30;;;;;;5032588;28;20497;-79
2021/09/11 05:54:30;;;;;;;2.70;2.60;;;18.90;67.30;;;;;;5031657;28;20038;-79
2021/09/11 05:56:56;;;;;;;2.50;2.40;;;18.90;67.30;;;;;;5031475;28;20389;-80
2021/09/11 05:59:22;;;;;;;2.50;2.40;;;18.90;67.40;;;;;;5031678;28;20025;-79
2021/09/11 06:01:49;;;;;;;2.20;2.10;;;18.80;67.30;;;;;;5031310;28;20379;-79
2021/09/11 06:04:15;;;;;;;2.38;2.28;;;18.80;67.40;;;;;;5034035;28;20029;-79
2021/09/11 06:06:41;;;;;;;2.53;2.42;;;18.80;67.50;;;;;;5037441;28;20045;-79
2021/09/11 06:09:07;;;;;;;2.67;2.58;;;18.80;67.40;;;;;;5038190;28;20049;-80
2021/09/11 06:11:33;;;;;;;2.90;2.75;;;18.80;67.40;;;;;;5037812;28;20482;-79
2021/09/11 06:13:59;;;;;;;2.55;2.45;;;18.80;67.40;;;;;;5018989;28;20038;-79
2021/09/11 06:16:25;;;;;;;2.72;2.63;;;18.90;67.40;;;;;;5036633;28;20030;-80
2021/09/11 06:18:52;;;;;;;3.10;2.90;;;18.90;67.40;;;;;;5038680;28;20034;-80
2021/09/11 06:21:18;;;;;;;2.78;2.67;;;18.90;68.10;;;;;;5038139;28;20030;-79
2021/09/11 06:23:44;;;;;;;2.63;2.53;;;19.00;67.30;;;;;;5036825;28;20032;-79
2021/09/11 06:26:10;;;;;;;3.30;3.10;;;19.00;67.20;;;;;;5036746;28;20040;-80
2021/09/11 06:28:36;;;;;;;2.63;2.53;;;19.10;67.10;;;;;;5036895;28;20041;-79
2021/09/11 06:31:02;;;;;;;2.88;2.78;;;19.20;67.70;;;;;;5038297;28;20486;-79
2021/09/11 06:33:28;;;;;;;2.60;2.50;;;19.40;66.70;;;;;;5037930;28;20045;-79
2021/09/11 06:35:54;;;;;;;2.85;2.75;;;19.50;66.40;;;;;;5037958;28;20025;-80
2021/09/11 06:38:20;;;;;;;2.60;2.50;;;19.50;66.30;;;;;;5036590;28;20486;-80
2021/09/11 06:40:46;;;;;;;2.80;2.70;;;19.60;66.30;;;;;;5037824;28;20040;-79
2021/09/11 06:43:12;;;;;;;2.72;2.63;;;19.50;66.30;;;;;;5037560;28;20364;-79
2021/09/11 06:45:38;;;;;;;3.13;2.92;;;19.50;66.50;;;;;;5036117;28;20041;-79
2021/09/11 06:48:05;;;;;;;3.00;2.90;;;19.50;66.60;;;;;;5036708;28;20026;-79
2021/09/11 06:50:31;;;;;;;2.90;2.80;;;19.50;66.60;;;;;;5037971;28;20501;-80
2021/09/11 06:52:57;;;;;;;3.00;2.83;;;19.60;66.60;;;;;;5038023;28;20029;-80
2021/09/11 06:55:23;;;;;;;3.30;3.20;;;19.70;66.50;;;;;;5036422;28;20466;-80
2021/09/11 06:57:49;;;;;;;3.05;2.88;;;19.80;66.30;;;;;;5038345;28;20088;-80
2021/09/11 07:00:15;;;;;;;3.20;3.10;;;19.90;66.00;;;;;;5037534;28;20033;-80
2021/09/11 07:02:41;;;;;;;3.35;3.15;;;20.00;66.00;;;;;;5036729;28;20385;-79
2021/09/11 07:05:08;;;;;;;3.20;3.10;;;20.10;66.00;;;;;;5037519;28;20044;-80
2021/09/11 07:07:35;;;;;;;3.88;3.47;;;20.10;65.80;;;;;;5036589;28;20378;-80
2021/09/11 07:10:01;;;;;;;3.95;3.75;;;20.30;65.70;;;;;;5037641;28;20053;-80
2021/09/11 07:12:27;;;;;;;3.95;3.75;;;20.50;65.50;;;;;;5037487;28;20026;-80
2021/09/11 07:14:53;;;;;;;3.60;3.40;;;20.60;65.10;;;;;;5037783;28;20524;-80
2021/09/11 07:17:19;;;;;;;3.45;3.33;;;20.80;64.90;;;;;;5034089;28;20037;-80
2021/09/11 07:19:45;;;;;;;3.85;3.58;;;20.80;64.80;;;;;;5034484;28;20386;-80
2021/09/11 07:22:11;;;;;;;4.03;3.80;;;20.80;64.70;;;;;;5035109;28;20033;-80
2021/09/11 07:24:37;;;;;;;3.80;3.60;;;20.80;64.80;;;;;;5033953;28;20033;-80
2021/09/11 07:27:03;;;;;;;3.42;3.33;;;20.80;64.90;;;;;;5033089;28;20036;-80
2021/09/11 07:29:29;;;;;;;3.60;3.40;;;20.80;65.00;;;;;;5032887;28;20033;-80
2021/09/11 07:31:56;;;;;;;3.70;3.50;;;20.80;65.10;;;;;;5032723;28;20482;-80
2021/09/11 07:34:22;;;;;;;3.80;3.60;;;20.80;65.20;;;;;;5034355;28;20045;-80
2021/09/11 07:36:48;;;;;;;3.00;2.90;;;20.70;65.10;;;;;;5034675;28;20030;-80
2021/09/11 07:39:15;;;;;;;3.88;3.67;;;20.70;65.20;;;;;;5032294;28;20029;-79
2021/09/11 07:41:41;;;;;;;4.97;4.68;;;20.60;65.40;;;;;;5033883;28;20048;-79
2021/09/11 07:44:07;;;;;;;4.50;4.30;;;20.70;65.50;;;;;;5034012;28;20030;-80
2021/09/11 07:46:33;;;;;;;3.97;3.78;;;20.80;65.40;;;;;;5032440;28;20037;-80
2021/09/11 07:48:59;;;;;;;3.72;3.53;;;21.00;65.10;;;;;;5034606;28;20474;-79
2021/09/11 07:51:25;;;;;;;4.40;4.10;;;21.20;64.70;;;;;;5033895;28;20034;-80
2021/09/11 07:53:51;;;;;;;4.85;4.65;;;21.30;64.30;;;;;;5033518;28;20485;-80
2021/09/11 07:56:19;;;;;;;5.57;5.28;;;21.50;64.00;;;;;;5033832;28;20033;-80
2021/09/11 07:58:46;;;;;;;4.82;4.63;;;21.70;63.70;;;;;;5017168;28;20022;-80
2021/09/11 08:01:12;;;;;;;4.55;4.35;;;21.80;63.50;;;;;;5008380;28;20041;-80
2021/09/11 08:03:38;;;;;;;5.88;5.57;;;22.10;63.10;;;;;;5033380;28;20036;-80
2021/09/11 08:06:07;;;;;;;5.03;4.72;;;22.40;62.80;;;;;;5033466;28;20061;-80
2021/09/11 08:08:34;;;;;;;5.97;5.68;;;22.70;62.10;;;;;;5031168;28;20040;-80
2021/09/11 08:11:01;;;;;;;5.60;5.30;;;23.00;61.60;;;;;;5033698;28;20037;-81
2021/09/11 08:13:27;;;;;;;6.00;5.70;;;23.40;61.00;;;;;;5032590;28;20034;-80
2021/09/11 08:15:53;;;;;;;5.88;5.57;;;23.70;60.30;;;;;;5033630;28;20354;-80
2021/09/11 08:18:19;;;;;;;6.18;5.88;;;24.00;59.90;;;;;;5033238;28;20467;-81
2021/09/11 08:20:45;;;;;;;6.20;5.90;;;24.30;59.50;;;;;;5033313;28;20040;-81
2021/09/11 08:23:12;;;;;;;6.53;6.22;;;24.50;59.30;;;;;;5031785;28;20382;-80
2021/09/11 08:25:38;;;;;;;7.43;7.13;;;24.60;59.10;;;;;;5033364;28;20056;-81
2021/09/11 08:28:04;;;;;;;8.10;7.70;;;24.80;58.80;;;;;;5032254;28;20025;-81
2021/09/11 08:30:30;;;;;;;7.82;7.45;;;24.80;58.80;;;;;;5031087;28;20041;-81
2021/09/11 08:32:56;;;;;;;9.32;8.90;;;24.90;58.80;;;;;;5033061;28;20398;-81
2021/09/11 08:35:22;;;;;;;9.05;8.65;;;25.10;58.50;;;;;;5033077;28;20034;-81
2021/09/11 08:37:49;;;;;;;7.70;7.32;;;25.30;58.30;;;;;;5032533;28;20034;-81
2021/09/11 08:40:15;;;;;;;8.10;7.70;;;25.30;58.30;;;;;;5032611;28;20462;-81
2021/09/11 08:42:41;;;;;;;7.65;7.25;;;25.20;58.20;;;;;;5032969;28;20521;-81
2021/09/11 08:45:12;;;;;;;7.63;7.22;;;25.00;58.40;;;;;;5031885;28;20041;-80
2021/09/11 08:47:42;;;;;;;7.43;7.13;;;24.70;58.60;;;;;;5031641;28;20029;-81
2021/09/11 08:50:10;;;;;;;6.65;6.35;;;24.60;59.00;;;;;;5031602;28;20028;-81
2021/09/11 08:52:36;;;;;;;6.40;6.10;;;24.70;58.90;;;;;;5031582;28;20053;-81
2021/09/11 08:55:03;;;;;;;6.22;5.85;;;24.70;58.60;;;;;;5033344;28;20029;-81
2021/09/11 08:57:30;;;;;;;5.90;5.60;;;24.50;58.60;;;;;;5031347;28;20037;-81
2021/09/11 08:59:57;;;;;;;6.25;5.95;;;24.30;59.00;;;;;;5032294;28;20103;-81
2021/09/11 09:02:24;;;;;;;5.15;4.95;;;24.10;59.20;;;;;;5031952;28;20419;-81
2021/09/11 09:04:51;;;;;;;5.00;4.80;;;23.80;59.50;;;;;;5031148;28;20025;-81
2021/09/11 09:07:30;;;;;;;4.70;4.50;;;23.70;59.70;;;;;;5031590;28;20034;-81
2021/09/11 09:09:57;;;;;;;4.93;4.72;;;23.60;59.80;;;;;;5032867;28;20044;-80
2021/09/11 09:12:23;;;;;;;4.07;3.88;;;23.40;59.90;;;;;;5031106;28;20046;-81
2021/09/11 09:15:05;;;;;;;5.10;4.80;;;23.40;60.00;;;;;;5032455;28;20022;-81
2021/09/11 09:17:37;;;;;;;4.85;4.65;;;23.30;60.10;;;;;;5030037;28;20044;-81
2021/09/11 09:20:11;;;;;;;5.10;4.82;;;23.30;60.10;;;;;;5031574;28;20048;-81
2021/09/11 09:22:37;;;;;;;5.30;5.10;;;23.30;60.00;;;;;;5030472;28;20045;-80
2021/09/11 09:25:04;;;;;;;5.20;4.90;;;23.20;60.00;;;;;;5032007;28;20041;-81
2021/09/11 09:27:30;;;;;;;4.93;4.72;;;23.20;60.10;;;;;;5030767;28;20044;-81
2021/09/11 09:30:00;;;;;;;4.93;4.72;;;23.50;59.70;;;;;;5030993;28;20026;-81
2021/09/11 09:32:36;;;;;;;5.57;5.35;;;23.70;59.20;;;;;;5030944;28;20041;-81
2021/09/11 09:35:16;;;;;;;5.40;5.18;;;23.90;58.80;;;;;;5031668;28;20025;-81
2021/09/11 09:38:06;;;;;;;6.10;5.80;;;24.10;58.50;;;;;;5014509;28;20037;-81
2021/09/11 09:40:34;;;;;;;5.37;5.17;;;24.40;58.20;;;;;;5020272;28;20398;-81
2021/09/11 09:43:01;;;;;;;6.47;6.18;;;24.80;57.70;;;;;;5031376;28;20025;-81
2021/09/11 09:45:28;;;;;;;7.10;6.80;;;25.20;57.20;;;;;;5030814;28;20096;-81
2021/09/11 09:48:10;;;;;;;10.48;9.70;;;25.40;56.90;;;;;;5030164;28;20037;-81
2021/09/11 09:50:38;;;;;;;9.88;9.40;;;25.50;56.50;;;;;;5030629;28;20036;-81
2021/09/11 09:53:04;;;;;;;9.85;9.38;;;25.60;56.40;;;;;;5030674;28;20025;-81
2021/09/11 09:55:31;;;;;;;9.77;9.27;;;25.50;56.40;;;;;;5031884;28;20029;-81
2021/09/11 09:57:57;;;;;;;10.07;9.30;;;25.40;56.30;;;;;;5030273;28;20394;-81
2021/09/11 10:00:24;;;;;;;10.10;9.60;;;25.40;56.40;;;;;;5029653;28;20037;-81
2021/09/11 10:02:50;;;;;;;9.70;9.25;;;25.30;56.50;;;;;;5030186;28;20017;-81
2021/09/11 10:05:19;;;;;;;10.30;9.80;;;25.30;56.60;;;;;;5030477;28;20083;-81
2021/09/11 10:08:12;;;;;;;8.38;7.97;;;25.20;56.50;;;;;;5014945;28;20025;-81
2021/09/11 10:10:39;;;;;;;9.05;8.63;;;25.00;56.70;;;;;;5029448;28;20041;-81
2021/09/11 10:13:13;;;;;;;7.13;6.80;;;24.90;56.90;;;;;;5031888;28;20038;-81
2021/09/11 10:16:01;;;;;;;6.32;6.03;;;24.70;57.10;;;;;;5030668;28;20041;-81
2021/09/11 10:18:32;;;;;;;5.00;4.80;;;24.40;57.30;;;;;;5030067;28;20048;-81
2021/09/11 10:21:23;;;;;;;4.88;4.68;;;24.20;57.50;;;;;;5031632;28;20386;-81
2021/09/11 10:23:56;;;;;;;4.78;4.55;;;24.00;57.60;;;;;;5031578;28;20025;-80
2021/09/11 10:27:05;;;;;;;4.85;4.65;;;24.00;57.90;;;;;;5031355;28;20037;-81
2021/09/11 10:29:32;;;;;;;4.97;4.78;;;23.90;57.60;;;;;;4965616;28;20050;-81
2021/09/11 10:32:10;;;;;;;4.90;4.60;;;24.00;57.50;;;;;;4968466;28;20050;-81
2021/09/11 10:34:56;;;;;;;4.85;4.60;;;24.10;57.30;;;;;;4969706;28;20215;-81
2021/09/11 10:37:42;;;;;;;7.15;6.80;;;24.30;56.90;;;;;;4949394;28;20183;-81
2021/09/11 10:40:33;;;;;;;6.65;6.35;;;24.50;56.60;;;;;;4966868;28;20039;-81
2021/09/11 10:43:04;;;;;;;;;;;24.60;56.40;;;;;;4955524;28;20047;-81
2021/09/11 10:45:36;;;;;;;7.30;7.00;;;24.80;56.20;;;;;;4949025;28;20283;-81
2021/09/11 10:48:09;;;;;;;9.43;9.02;;;25.00;55.80;;;;;;4965838;28;20038;-81
2021/09/11 10:50:38;;;;;;;9.18;8.68;;;25.30;55.60;;;;;;4966969;28;20047;-81
2021/09/11 10:53:23;;;;;;;8.55;8.15;;;25.40;55.30;;;;;;4970909;28;20046;-81
2021/09/11 10:55:49;;;;;;;7.80;7.40;;;25.60;55.00;;;;;;4957734;28;20034;-81
2021/09/11 10:58:24;;;;;;;7.72;7.38;;;25.80;55.40;;;;;;4970839;28;20030;-81
2021/09/11 11:01:00;;;;;;;7.25;6.93;;;26.00;54.40;;;;;;4973154;28;20035;-81
2021/09/11 11:03:27;;;;;;;7.43;7.13;;;26.10;54.20;;;;;;4989273;28;20056;-81
2021/09/11 11:06:04;;;;;;;8.35;7.95;;;26.20;54.20;;;;;;5033681;28;20036;-81
2021/09/11 11:08:31;;;;;;;9.05;8.65;;;26.40;53.90;;;;;;5034471;28;20041;-81
2021/09/11 11:10:57;;;;;;;12.10;11.50;;;26.70;53.60;;;;;;5034890;28;20395;-81
2021/09/11 11:13:24;;;;;;;9.48;9.07;;;26.90;53.20;;;;;;5034930;28;20367;-81
2021/09/11 11:15:57;;;;;;;10.32;9.82;;;27.00;52.90;;;;;;5033958;28;20038;-81
2021/09/11 11:18:27;;;;;;;9.93;9.45;;;27.20;52.70;;;;;;5032669;28;20045;-81
2021/09/11 11:20:53;;;;;;;9.45;9.05;;;27.40;52.60;;;;;;5033412;28;20049;-81
2021/09/11 11:23:19;;;;;;;9.02;8.63;;;27.40;52.30;;;;;;5033271;28;20089;-81
2021/09/11 11:25:45;;;;;;;9.68;9.18;;;27.50;52.30;;;;;;5017213;28;20044;-81
2021/09/11 11:28:13;;;;;;;9.25;8.85;;;27.60;52.10;;;;;;5028696;28;20382;-81
2021/09/11 11:30:40;;;;;;;7.95;7.55;;;27.70;51.90;;;;;;5031663;28;20486;-82
2021/09/11 11:33:07;;;;;;;8.60;8.20;;;27.60;52.00;;;;;;5032484;28;20486;-81
2021/09/11 11:35:33;;;;;;;8.27;7.88;;;27.40;52.00;;;;;;5033098;28;20406;-81
2021/09/11 11:37:59;;;;;;;8.10;7.57;;;27.30;52.20;;;;;;5034134;28;20026;-81
2021/09/11 11:40:26;;;;;;;9.13;8.73;;;27.10;52.40;;;;;;5014250;28;20372;-81
2021/09/11 11:42:52;;;;;;;9.02;8.63;;;26.90;52.70;;;;;;5034927;28;20374;-81
2021/09/11 11:45:23;;;;;;;7.93;7.55;;;26.90;52.30;;;;;;5032143;28;20039;-81
2021/09/11 11:47:57;;;;;;;9.25;8.85;;;26.70;52.40;;;;;;5012708;28;20045;-81
2021/09/11 11:50:33;;;;;;;8.43;8.02;;;26.50;52.40;;;;;;5023331;28;20021;-81
2021/09/11 11:53:10;;;;;;;8.40;8.00;;;26.50;52.50;;;;;;5032703;28;20029;-81
2021/09/11 11:55:39;;;;;;;8.18;7.78;;;26.60;52.50;;;;;;5032244;28;20057;-81
2021/09/11 11:58:09;;;;;;;9.40;8.95;;;26.70;51.90;;;;;;5034506;28;20032;-81
2021/09/11 12:00:48;;;;;;;9.60;9.18;;;26.80;51.60;;;;;;5031647;28;20041;-81
2021/09/11 12:03:42;;;;;;;8.75;8.35;;;26.80;51.20;;;;;;5032756;28;20033;-81
2021/09/11 12:06:23;;;;;;;7.90;7.53;;;27.00;51.00;;;;;;5032692;28;20033;-82
2021/09/11 12:08:49;;;;;;;8.13;7.72;;;27.10;50.70;;;;;;5033466;28;20045;-82
2021/09/11 12:11:27;;;;;;;7.40;7.10;;;27.40;50.50;;;;;;5032652;28;20032;-81
2021/09/11 12:14:00;;;;;;;7.40;7.10;;;27.50;50.20;;;;;;5016820;28;20394;-81
2021/09/11 12:16:26;;;;;;;7.05;6.75;;;27.60;50.00;;;;;;5033155;28;20052;-81
2021/09/11 12:18:53;;;;;;;6.15;5.85;;;27.50;50.00;;;;;;5032917;28;20022;-81
2021/09/11 12:21:19;;;;;;;6.18;5.88;;;27.30;50.10;;;;;;5032234;28;20034;-81
2021/09/11 12:23:54;;;;;;;7.00;6.70;;;27.00;50.30;;;;;;5031415;28;20029;-81
2021/09/11 12:26:31;;;;;;;8.23;7.82;;;26.80;50.50;;;;;;5032107;28;20052;-81
2021/09/11 12:29:12;;;;;;;6.55;6.25;;;26.60;50.80;;;;;;5031185;28;20401;-81
2021/09/11 12:31:41;;;;;;;7.55;7.25;;;26.40;50.80;;;;;;5032842;28;20046;-81
2021/09/11 12:34:15;;;;;;;6.50;6.20;;;26.30;50.80;;;;;;5033882;28;20018;-81
2021/09/11 12:36:42;;;;;;;7.22;6.93;;;26.40;50.80;;;;;;5033087;28;20040;-81
2021/09/11 12:39:25;;;;;;;7.47;7.18;;;26.40;50.60;;;;;;5033063;28;20036;-81
2021/09/11 12:41:53;;;;;;;6.75;6.45;;;26.50;50.30;;;;;;5032900;28;20037;-81
2021/09/11 12:44:21;;;;;;;6.82;6.53;;;26.50;50.20;;;;;;5032964;28;20030;-81
2021/09/11 12:46:55;;;;;;;6.28;5.97;;;26.60;50.00;;;;;;5017213;28;20045;-81
2021/09/11 12:49:27;;;;;;;5.80;5.50;;;26.50;49.90;;;;;;5033118;28;20029;-81
2021/09/11 12:51:54;;;;;;;5.90;5.60;;;26.50;49.90;;;;;;5032981;28;20037;-81